Time;durP1;ratioP1;P1;durP2;ratioP2;P2;SDS_P1;SDS_P2;PMS_P1;PMS_P2;Temp;Humidity;BMP_temperature;BMP_pressure;BME280_temperature;BME280_humidity;BME280_pressure;Samples;Min_cycle;Max_cycle;Signal;HPM_P1;HPM_P2
2022/04/20 00:00:52;;;;;;;2.75;1.80;;;;;;;18.44;37.39;96328.63;5113669;28;20032;-36
2022/04/20 00:03:18;;;;;;;2.88;1.02;;;;;;;18.49;36.93;96325.19;5113958;28;20080;-35
2022/04/20 00:05:44;;;;;;;2.53;1.00;;;;;;;18.49;37.26;96325.19;5113228;28;20471;-35
2022/04/20 00:08:10;;;;;;;3.42;1.40;;;;;;;18.48;37.11;96318.94;5113006;28;20019;-34
2022/04/20 00:10:36;;;;;;;2.58;1.58;;;;;;;18.43;36.97;96322.38;5112993;28;20127;-35
2022/04/20 00:13:01;;;;;;;1.85;1.42;;;;;;;18.44;37.64;96325.88;5095596;28;20084;-34
2022/04/20 00:15:27;;;;;;;2.78;0.93;;;;;;;18.44;37.32;96325.88;5118145;28;20032;-34
2022/04/20 00:17:52;;;;;;;4.10;1.20;;;;;;;18.49;37.22;96319.72;5118056;28;20023;-35
2022/04/20 00:20:18;;;;;;;2.85;1.55;;;;;;;18.49;37.17;96314.22;5117808;28;20031;-35
2022/04/20 00:22:44;;;;;;;1.95;1.08;;;;;;;18.50;37.32;96321.22;5117993;28;20108;-35
2022/04/20 00:25:10;;;;;;;2.20;0.98;;;;;;;18.50;36.96;96326.72;5099819;28;20038;-35
2022/04/20 00:27:37;;;;;;;1.98;1.15;;;;;;;18.48;37.01;96323.69;5117931;28;20027;-34
2022/04/20 00:30:10;;;;;;;1.60;0.90;;;;;;;18.48;36.99;96329.19;5099390;28;20391;-35
2022/04/20 00:32:36;;;;;;;1.23;0.70;;;;;;;18.43;37.49;96324.38;5117526;28;20051;-34
2022/04/20 00:35:02;;;;;;;2.03;1.13;;;;;;;18.44;37.06;96325.88;5117770;28;20070;-35
2022/04/20 00:37:28;;;;;;;3.25;1.20;;;;;;;18.40;37.38;96328.84;5117671;28;20044;-35
2022/04/20 00:39:56;;;;;;;2.15;1.20;;;;;;;18.43;37.58;96322.38;5117400;28;20035;-35
2022/04/20 00:42:23;;;;;;;3.65;1.10;;;;;;;18.43;37.47;96324.38;5117540;28;20130;-34
2022/04/20 00:44:54;;;;;;;4.10;1.58;;;;;;;18.41;37.32;96327.63;5117450;28;20072;-35
2022/04/20 00:47:20;;;;;;;2.13;0.85;;;;;;;18.47;37.19;96333.16;5117216;28;20037;-35
2022/04/20 00:49:47;;;;;;;2.42;1.10;;;;;;;18.46;37.18;96332.41;5117567;28;20043;-34
2022/04/20 00:52:13;;;;;;;3.17;1.30;;;;;;;18.43;37.18;96333.34;5117364;28;20043;-34
2022/04/20 00:54:39;;;;;;;2.08;1.15;;;;;;;18.37;37.45;96329.03;5117251;28;20464;-35
2022/04/20 00:57:06;;;;;;;2.22;1.02;;;;;;;18.39;37.40;96332.06;5117301;28;20026;-35
2022/04/20 00:59:34;;;;;;;5.32;1.10;;;;;;;18.33;37.68;96337.47;5116973;28;20020;-34
2022/04/20 01:02:00;;;;;;;2.10;0.98;;;;;;;18.40;37.32;96334.34;5117382;28;20098;-34
2022/04/20 01:04:26;;;;;;;1.95;1.40;;;;;;;18.39;37.28;96327.34;5117005;28;20020;-34
2022/04/20 01:06:52;;;;;;;1.58;0.90;;;;;;;18.37;37.24;96326.28;5116821;28;20036;-34
2022/04/20 01:09:18;;;;;;;1.80;1.15;;;;;;;18.39;37.28;96327.34;5117006;28;20367;-35
2022/04/20 01:11:44;;;;;;;4.97;1.13;;;;;;;18.40;37.53;96323.34;5117229;28;20030;-34
2022/04/20 01:14:11;;;;;;;3.58;1.30;;;;;;;18.33;37.54;96312.00;5116878;28;20467;-35
2022/04/20 01:16:37;;;;;;;1.75;0.95;;;;;;;18.31;37.66;96316.00;5117275;28;20023;-35
2022/04/20 01:19:03;;;;;;;1.55;0.90;;;;;;;18.33;37.37;96317.50;5098240;28;20085;-35
2022/04/20 01:21:29;;;;;;;3.15;1.00;;;;;;;18.37;37.41;96323.56;5116857;28;20107;-34
2022/04/20 01:23:55;;;;;;;2.80;1.30;;;;;;;18.33;37.81;96317.50;5083277;28;20384;-36
2022/04/20 01:26:21;;;;;;;3.28;1.17;;;;;;;18.29;37.85;96315.72;5095899;28;20034;-34
2022/04/20 01:28:48;;;;;;;2.53;1.25;;;;;;;18.30;37.76;96313.72;5116699;28;20028;-34
2022/04/20 01:31:17;;;;;;;2.08;1.25;;;;;;;18.30;37.88;96319.22;5116486;28;20099;-35
2022/04/20 01:33:44;;;;;;;2.65;1.25;;;;;;;18.28;37.97;96316.97;5116414;28;20019;-35
2022/04/20 01:36:11;;;;;;;3.45;1.33;;;;;;;18.32;37.80;96316.75;5116341;28;20066;-34
2022/04/20 01:38:38;;;;;;;2.10;1.13;;;;;;;18.29;38.10;96318.47;5116399;28;20035;-35
2022/04/20 01:41:04;;;;;;;3.80;1.30;;;;;;;18.24;37.97;96319.16;5116179;28;20072;-34
2022/04/20 01:43:30;;;;;;;3.15;1.40;;;;;;;18.29;37.95;96318.47;5116001;28;20050;-35
2022/04/20 01:45:56;;;;;;;2.05;1.30;;;;;;;18.25;38.02;96317.16;5116032;28;20548;-35
2022/04/20 01:48:23;;;;;;;2.95;1.27;;;;;;;18.29;37.81;96310.25;5097838;28;20031;-35
2022/04/20 01:53:32;;;;;;;2.50;1.10;;;;;;;18.27;38.00;96323.69;5116126;28;20076;-35
2022/04/20 01:56:03;;;;;;;2.90;1.23;;;;;;;18.25;37.89;96306.94;5116119;28;20035;-35
2022/04/20 01:58:28;;;;;;;2.65;1.35;;;;;;;18.26;37.98;96324.91;5116016;28;20359;-35
2022/04/20 02:00:54;;;;;;;2.88;1.40;;;;;;;18.27;37.76;96320.19;5115861;28;20027;-34
2022/04/20 02:03:21;;;;;;;3.67;1.30;;;;;;;18.27;38.06;96320.19;5115472;28;20030;-35
2022/04/20 02:05:46;;;;;;;2.75;1.60;;;;;;;18.25;38.32;96312.44;5115738;28;20023;-35
2022/04/20 02:08:12;;;;;;;4.75;1.20;;;;;;;18.28;38.12;96306.00;5115705;28;20071;-35
2022/04/20 02:10:37;;;;;;;3.67;1.67;;;;;;;18.26;38.18;96313.94;5115557;28;20535;-35
2022/04/20 02:13:03;;;;;;;2.38;1.17;;;;;;;18.26;38.33;96307.69;5115833;28;20027;-34
2022/04/20 02:15:28;;;;;;;1.95;1.20;;;;;;;18.24;38.04;96304.66;5115653;28;20107;-34
2022/04/20 02:17:54;;;;;;;2.90;1.40;;;;;;;18.19;38.43;96308.84;5115664;28;20011;-35
2022/04/20 02:20:22;;;;;;;2.53;1.40;;;;;;;18.22;38.07;96313.38;5115533;28;20090;-35
2022/04/20 02:22:47;;;;;;;2.53;1.48;;;;;;;18.22;38.04;96313.38;5115574;28;20023;-34
2022/04/20 02:25:13;;;;;;;2.22;1.42;;;;;;;18.22;38.20;96310.63;5115508;28;20016;-34
2022/04/20 02:27:39;;;;;;;2.83;1.30;;;;;;;18.20;38.11;96306.84;5115172;28;20024;-35
2022/04/20 02:30:06;;;;;;;3.53;1.45;;;;;;;18.15;38.34;96313.81;5115153;28;20024;-35
2022/04/20 02:32:31;;;;;;;2.70;1.30;;;;;;;18.13;38.32;96291.56;5115298;28;20434;-35
2022/04/20 02:34:57;;;;;;;3.33;1.35;;;;;;;18.22;38.15;96301.66;5115473;28;20035;-35
2022/04/20 02:37:24;;;;;;;3.25;1.30;;;;;;;18.16;38.29;96296.09;5114303;28;20023;-34
2022/04/20 02:39:50;;;;;;;3.72;1.48;;;;;;;18.13;38.40;96297.06;5096587;28;20027;-35
2022/04/20 02:42:17;;;;;;;2.10;1.05;;;;;;;18.15;38.32;96291.84;5114743;28;20047;-35
2022/04/20 02:44:43;;;;;;;2.58;1.40;;;;;;;18.19;38.36;96303.34;5115092;28;20027;-35
2022/04/20 02:47:09;;;;;;;2.25;1.50;;;;;;;18.07;38.26;96298.94;5114840;28;20076;-34
2022/04/20 02:49:35;;;;;;;2.05;1.10;;;;;;;18.10;38.44;96300.75;5114677;28;20114;-35
2022/04/20 02:52:01;;;;;;;1.77;1.20;;;;;;;18.05;38.60;96298.66;5114792;28;20108;-35
2022/04/20 02:54:29;;;;;;;4.93;1.63;;;;;;;18.06;38.62;96300.19;5114976;28;20027;-34
2022/04/20 02:56:55;;;;;;;3.08;1.67;;;;;;;18.12;38.53;96298.28;5096777;28;20016;-34
2022/04/20 02:59:21;;;;;;;2.63;1.35;;;;;;;18.07;38.65;96289.97;5114674;28;20034;-34
2022/04/20 03:01:46;;;;;;;2.53;1.40;;;;;;;18.11;38.57;96291.28;5096497;28;20035;-34
2022/04/20 03:04:12;;;;;;;1.95;1.10;;;;;;;18.01;38.74;96289.16;5114622;28;20020;-34
2022/04/20 03:06:38;;;;;;;3.45;1.52;;;;;;;18.06;38.69;96291.94;5114496;28;20494;-35
2022/04/20 03:09:04;;;;;;;5.35;1.35;;;;;;;18.03;38.65;96301.16;5114543;28;20019;-35
2022/04/20 03:11:31;;;;;;;4.80;1.38;;;;;;;18.09;38.51;96288.25;5114848;28;20023;-35
2022/04/20 03:13:56;;;;;;;2.45;1.15;;;;;;;18.02;38.72;96294.16;5114334;28;20422;-35
2022/04/20 03:16:23;;;;;;;3.00;1.40;;;;;;;18.09;38.62;96301.22;5114510;28;20019;-34
2022/04/20 03:18:49;;;;;;;2.13;1.60;;;;;;;18.03;38.96;96290.19;5114247;28;20028;-34
2022/04/20 03:21:14;;;;;;;3.10;1.48;;;;;;;17.92;39.14;96298.28;5096329;28;20486;-34
2022/04/20 03:23:40;;;;;;;2.47;1.20;;;;;;;17.99;39.13;96300.59;5114317;28;20020;-35
2022/04/20 03:26:06;;;;;;;3.72;1.70;;;;;;;17.97;39.42;96294.84;5114068;28;20072;-34
2022/04/20 03:28:32;;;;;;;3.13;1.30;;;;;;;17.98;39.35;96298.34;5114211;28;20523;-35
2022/04/20 03:30:59;;;;;;;3.65;1.83;;;;;;;17.90;39.47;96293.25;5114135;28;20062;-35
2022/04/20 03:33:31;;;;;;;2.75;1.50;;;;;;;17.95;39.53;96294.53;5114190;28;20027;-35
2022/04/20 03:35:57;;;;;;;1.73;1.27;;;;;;;18.02;38.96;96299.66;5095814;28;20103;-35
2022/04/20 03:38:23;;;;;;;3.00;1.42;;;;;;;17.99;39.44;96295.13;5114051;28;20039;-34
2022/04/20 03:40:49;;;;;;;4.57;1.48;;;;;;;17.96;39.64;96298.81;5114155;28;20027;-36
2022/04/20 03:43:15;;;;;;;2.03;1.55;;;;;;;17.94;39.67;96293.03;5095543;28;20100;-35
2022/04/20 03:45:41;;;;;;;3.80;1.73;;;;;;;17.91;40.01;96300.25;5096050;28;20031;-34
2022/04/20 03:48:07;;;;;;;5.13;1.67;;;;;;;17.95;39.64;96300.78;5113666;28;20598;-35
2022/04/20 03:50:33;;;;;;;4.53;1.60;;;;;;;18.00;39.63;96302.13;5114020;28;20054;-35
2022/04/20 03:53:00;;;;;;;3.05;1.70;;;;;;;17.99;39.86;96305.34;5114141;28;20046;-35
2022/04/20 03:55:25;;;;;;;3.60;1.50;;;;;;;17.99;40.00;96306.09;5113833;28;20025;-35
2022/04/20 03:57:51;;;;;;;2.33;1.42;;;;;;;17.99;39.88;96306.09;5113982;28;20051;-35
2022/04/20 04:00:17;;;;;;;3.55;1.55;;;;;;;18.00;40.01;96304.84;5095586;28;20157;-34
2022/04/20 04:02:42;;;;;;;4.60;1.52;;;;;;;17.95;39.98;96305.53;5114295;28;20026;-35
2022/04/20 04:05:09;;;;;;;4.28;1.92;;;;;;;17.95;40.09;96308.28;5113810;28;20095;-35
2022/04/20 04:07:37;;;;;;;2.55;1.65;;;;;;;17.99;40.06;96310.81;5113756;28;20020;-35
2022/04/20 04:10:06;;;;;;;3.38;1.80;;;;;;;17.93;40.25;96305.25;5095751;28;20023;-35
2022/04/20 04:12:32;;;;;;;3.58;1.50;;;;;;;17.98;39.97;96304.56;5113629;28;20472;-35
2022/04/20 04:14:57;;;;;;;3.38;1.60;;;;;;;18.00;39.84;96304.09;5113793;28;20023;-34
2022/04/20 04:17:23;;;;;;;2.40;1.48;;;;;;;17.89;40.52;96305.47;5113569;28;20020;-34
2022/04/20 04:19:48;;;;;;;1.98;1.48;;;;;;;17.88;40.43;96309.44;5113696;28;20077;-34
2022/04/20 04:22:14;;;;;;;3.42;2.00;;;;;;;17.94;40.05;96315.75;5113790;28;20402;-35
2022/04/20 04:24:40;;;;;;;3.25;1.60;;;;;;;17.92;40.01;96318.22;5113766;28;20024;-34
2022/04/20 04:27:09;;;;;;;3.17;1.55;;;;;;;17.90;40.25;96320.69;5113694;28;20028;-35
2022/04/20 04:29:35;;;;;;;2.30;1.50;;;;;;;17.91;40.35;96321.44;5113576;28;20020;-34
2022/04/20 04:32:01;;;;;;;3.58;1.63;;;;;;;17.93;40.43;96327.19;5113521;28;20102;-35
2022/04/20 04:34:27;;;;;;;3.03;1.33;;;;;;;17.96;40.29;96326.25;5113467;28;20027;-34
2022/04/20 04:36:54;;;;;;;4.22;1.63;;;;;;;17.94;40.48;96334.19;5113247;28;20016;-35
2022/04/20 04:39:21;;;;;;;3.22;1.70;;;;;;;17.95;40.29;96339.19;5113418;28;20030;-35
2022/04/20 04:41:50;;;;;;;3.95;1.50;;;;;;;17.94;40.33;96328.69;5113502;28;20032;-34
2022/04/20 04:44:17;;;;;;;3.33;1.40;;;;;;;17.95;40.33;96346.69;5113527;28;20031;-34
2022/04/20 04:49:27;;;;;;;2.67;1.60;;;;;;;17.88;40.73;96350.59;5113609;28;20022;-35
2022/04/20 04:51:53;;;;;;;3.15;1.58;;;;;;;17.87;40.94;96349.06;5095293;28;20019;-35
2022/04/20 04:54:18;;;;;;;3.17;1.35;;;;;;;17.88;40.88;96353.34;5113668;28;20076;-35
2022/04/20 04:56:44;;;;;;;4.28;1.90;;;;;;;17.91;41.05;96351.63;5113573;28;20015;-35
2022/04/20 04:59:10;;;;;;;2.30;1.23;;;;;;;17.90;41.22;96363.84;5113473;28;20034;-35
2022/04/20 05:01:37;;;;;;;3.33;1.50;;;;;;;17.89;41.06;96365.81;5116981;28;20019;-35
2022/04/20 05:04:03;;;;;;;2.95;1.48;;;;;;;17.91;40.63;96368.09;5117061;28;20024;-35
2022/04/20 05:06:28;;;;;;;1.90;1.40;;;;;;;17.88;41.22;96371.78;5116954;28;20368;-34
2022/04/20 05:08:55;;;;;;;4.70;1.90;;;;;;;17.89;41.14;96363.06;5116870;28;20044;-35
2022/04/20 05:11:20;;;;;;;5.68;1.60;;;;;;;17.86;41.45;96372.25;5115024;28;20424;-35
2022/04/20 05:13:46;;;;;;;4.32;1.80;;;;;;;17.83;41.32;96367.72;5115254;28;20024;-35
2022/04/20 05:16:12;;;;;;;4.50;1.80;;;;;;;17.87;41.39;96375.75;5114868;28;20036;-35
2022/04/20 05:18:39;;;;;;;3.25;1.80;;;;;;;17.93;41.17;96384.81;5115245;28;20039;-34
2022/04/20 05:21:05;;;;;;;3.60;1.42;;;;;;;17.86;41.56;96375.00;5115171;28;20031;-34
2022/04/20 05:23:31;;;;;;;4.50;1.48;;;;;;;17.85;41.36;96375.47;5114977;28;20027;-35
2022/04/20 05:25:57;;;;;;;5.60;1.48;;;;;;;17.91;41.40;96376.31;5113342;28;20479;-35
2022/04/20 05:28:22;;;;;;;4.88;1.92;;;;;;;17.98;41.12;96375.16;5114931;28;20024;-35
2022/04/20 05:30:48;;;;;;;6.35;2.00;;;;;;;17.90;41.51;96378.31;5114972;28;20030;-34
2022/04/20 05:33:14;;;;;;;4.03;1.70;;;;;;;17.86;41.62;96385.97;5115040;28;20039;-35
2022/04/20 05:35:40;;;;;;;5.45;1.80;;;;;;;17.79;42.00;96380.88;5096119;28;20080;-35
2022/04/20 05:43:34;;;;;;;3.58;1.85;;;;;;;17.83;42.04;96386.16;5114838;28;20412;-35
2022/04/20 05:46:00;;;;;;;5.10;2.03;;;;;;;17.80;41.97;96387.84;5114612;28;20023;-35
2022/04/20 05:48:26;;;;;;;5.72;1.75;;;;;;;17.74;42.36;96391.75;5114537;28;20067;-35
2022/04/20 05:50:52;;;;;;;4.07;1.80;;;;;;;17.86;41.42;96402.44;5114493;28;20027;-35
2022/04/20 05:53:17;;;;;;;5.97;2.03;;;;;;;17.89;41.65;96395.25;5114698;28;20153;-34
2022/04/20 05:55:43;;;;;;;7.18;2.08;;;;;;;17.90;41.39;96397.50;5095974;28;20123;-35
2022/04/20 05:58:09;;;;;;;5.57;2.05;;;;;;;17.82;41.81;96390.13;5114377;28;20023;-35
2022/04/20 06:00:34;;;;;;;5.88;1.98;;;;;;;17.85;41.72;96397.41;5114424;28;20023;-34
2022/04/20 06:03:00;;;;;;;3.08;2.00;;;;;;;17.86;41.74;96391.44;5114464;28;20038;-35
2022/04/20 06:05:26;;;;;;;3.92;1.90;;;;;;;17.87;41.79;96386.72;5114403;28;20034;-35
2022/04/20 06:07:54;;;;;;;5.45;1.90;;;;;;;17.85;41.90;96389.19;5114273;28;20403;-35
2022/04/20 06:10:21;;;;;;;4.72;1.90;;;;;;;17.85;41.78;96392.69;5114384;28;20054;-35
2022/04/20 06:12:47;;;;;;;4.65;1.80;;;;;;;17.80;42.02;96389.88;5114035;28;20016;-36
2022/04/20 06:15:12;;;;;;;5.35;2.53;;;;;;;17.78;42.18;96384.09;5114200;28;20023;-35
2022/04/20 06:17:38;;;;;;;3.40;1.88;;;;;;;17.83;42.02;96391.63;5095872;28;20030;-34
2022/04/20 06:20:05;;;;;;;5.25;2.05;;;;;;;17.79;42.33;96391.84;5095610;28;20093;-35
2022/04/20 06:22:31;;;;;;;5.65;1.92;;;;;;;17.81;42.20;96399.59;5114027;28;20111;-34
2022/04/20 06:24:57;;;;;;;4.28;1.90;;;;;;;17.87;41.96;96392.22;5113926;28;20098;-35
2022/04/20 06:27:30;;;;;;;5.13;1.83;;;;;;;17.88;41.83;96401.97;5113036;28;20024;-35
2022/04/20 06:29:56;;;;;;;4.93;1.92;;;;;;;17.83;41.92;96408.09;5095602;28;20379;-34
2022/04/20 06:32:23;;;;;;;6.22;1.80;;;;;;;17.81;42.07;96408.56;5113977;28;20032;-35
2022/04/20 06:34:49;;;;;;;5.32;2.00;;;;;;;17.87;41.59;96408.66;5113658;28;20472;-35
2022/04/20 06:37:15;;;;;;;5.25;2.20;;;;;;;17.83;42.03;96403.38;5113513;28;20027;-35
2022/04/20 06:39:41;;;;;;;3.95;1.92;;;;;;;17.86;41.82;96407.16;5095662;28;20543;-35
2022/04/20 06:42:07;;;;;;;6.00;2.20;;;;;;;17.83;42.03;96402.63;5113626;28;20055;-35
2022/04/20 06:44:34;;;;;;;2.70;1.48;;;;;;;17.83;41.83;96399.88;5113598;28;20031;-35
2022/04/20 06:47:00;;;;;;;3.38;1.80;;;;;;;17.78;41.82;96395.06;5094801;28;20027;-35
2022/04/20 06:49:25;;;;;;;2.90;2.22;;;;;;;17.78;42.01;96395.06;5097234;28;20024;-35
2022/04/20 07:00:04;;;;;;;3.20;1.45;;;;;;;17.85;41.61;96400.16;5092769;28;20039;-34
2022/04/20 07:02:30;;;;;;;5.55;1.67;;;;;;;17.74;42.23;96398.00;5092788;28;20050;-35
2022/04/20 07:04:55;;;;;;;4.35;1.60;;;;;;;17.84;41.91;96393.91;5093050;28;20020;-35
2022/04/20 07:07:22;;;;;;;3.65;2.05;;;;;;;17.80;41.80;96396.09;5092805;28;20032;-35
2022/04/20 07:09:48;;;;;;;3.70;1.67;;;;;;;17.78;41.86;96400.56;5074446;28;20039;-35
2022/04/20 07:12:15;;;;;;;3.03;1.67;;;;;;;17.76;41.94;96400.25;5074106;28;20060;-35
2022/04/20 07:14:48;;;;;;;2.75;1.63;;;;;;;17.75;42.18;96402.25;5092062;28;20027;-35
2022/04/20 07:17:13;;;;;;;2.00;1.40;;;;;;;17.71;41.95;96396.19;5093172;28;20019;-34
2022/04/20 07:19:39;;;;;;;5.68;2.50;;;;;;;17.71;42.06;96395.44;5092361;28;20471;-35
2022/04/20 07:22:04;;;;;;;2.90;1.80;;;;;;;17.66;42.34;96398.84;5091990;28;20026;-34
2022/04/20 07:24:31;;;;;;;3.10;1.70;;;;;;;17.73;42.26;96403.94;5092196;28;20073;-35
2022/04/20 07:26:56;;;;;;;3.97;1.55;;;;;;;17.81;42.23;96389.38;5091412;28;20102;-35
2022/04/20 07:29:39;;;;;;;3.60;1.80;;;;;;;17.80;41.93;96396.09;5073840;28;20039;-35
2022/04/20 07:32:05;;;;;;;3.90;2.25;;;;;;;17.66;42.64;96402.34;5073999;28;20104;-35
2022/04/20 07:34:30;;;;;;;4.50;1.80;;;;;;;17.68;42.76;96402.63;5092212;28;20020;-35
2022/04/20 07:36:56;;;;;;;3.67;1.70;;;;;;;17.71;42.25;96396.19;5091652;28;20065;-35
2022/04/20 07:39:21;;;;;;;2.72;1.63;;;;;;;17.80;41.96;96398.09;5092175;28;20384;-35
2022/04/20 07:41:47;;;;;;;3.55;1.70;;;;;;;17.75;42.45;96398.75;5095048;28;20383;-35
2022/04/20 07:44:12;;;;;;;4.07;1.60;;;;;;;17.73;42.45;96398.47;5112924;28;20495;-35
2022/04/20 07:46:38;;;;;;;2.60;1.80;;;;;;;17.77;42.25;96394.31;5111733;28;20035;-35
2022/04/20 07:50:18;;;;;;;3.75;1.70;;;;;;;17.64;42.70;96393.09;5112119;28;20027;-35
2022/04/20 07:51:49;;;;;;;3.08;1.52;;;;;;;17.77;42.22;96396.28;5112427;28;20368;-34
2022/04/20 07:54:15;;;;;;;5.18;1.65;;;;;;;17.71;42.58;96398.19;5112472;28;20030;-34
2022/04/20 07:56:41;;;;;;;4.95;1.65;;;;;;;17.71;42.35;96395.44;5112507;28;20022;-35
2022/04/20 07:59:06;;;;;;;3.42;2.33;;;;;;;17.31;43.08;96393.97;5112091;28;20020;-34
2022/04/20 08:01:32;;;;;;;4.43;2.42;;;;;;;16.39;46.31;96395.88;5111585;28;20035;-34
2022/04/20 08:03:59;;;;;;;5.28;2.55;;;;;;;16.95;45.00;96402.50;5111084;28;20032;-33
2022/04/20 08:06:24;;;;;;;5.43;2.00;;;;;;;17.25;44.00;96412.31;5111679;28;20038;-33
2022/04/20 08:08:50;;;;;;;5.00;1.98;;;;;;;17.38;43.39;96404.59;5093190;28;20043;-33
2022/04/20 08:11:16;;;;;;;8.55;2.00;;;;;;;17.45;43.49;96415.16;5111290;28;20081;-33
2022/04/20 08:16:29;;;;;;;4.38;2.03;;;;;;;17.47;43.51;96409.97;5111517;28;20548;-33
2022/04/20 08:18:55;;;;;;;6.40;1.95;;;;;;;17.53;42.90;96407.34;5103973;28;20046;-33
2022/04/20 08:21:20;;;;;;;3.22;1.73;;;;;;;17.43;43.65;96398.44;5091101;28;20020;-33
2022/04/20 08:23:47;;;;;;;6.15;2.00;;;;;;;17.49;43.50;96410.25;5110684;28;20077;-33
2022/04/20 08:26:13;;;;;;;3.65;1.73;;;;;;;17.47;43.41;96407.22;5113478;28;20016;-32
2022/04/20 08:28:39;;;;;;;4.75;1.85;;;;;;;17.32;43.79;96411.94;5113883;28;20096;-33
2022/04/20 08:31:05;;;;;;;4.70;2.40;;;;;;;17.38;43.48;96412.81;5113771;28;20024;-33
2022/04/20 08:33:30;;;;;;;7.57;2.08;;;;;;;17.35;44.01;96413.75;5113566;28;20118;-33
2022/04/20 08:35:56;;;;;;;3.42;2.00;;;;;;;17.33;44.19;96424.41;5116812;28;20077;-33
2022/04/20 08:38:22;;;;;;;6.57;2.08;;;;;;;17.34;44.13;96420.44;5117868;28;20024;-34
2022/04/20 08:40:50;;;;;;;4.68;1.70;;;;;;;17.30;44.23;96414.41;5117160;28;20028;-32
2022/04/20 08:43:16;;;;;;;4.82;2.03;;;;;;;17.20;44.42;96415.69;5117617;28;20052;-33
2022/04/20 08:45:42;;;;;;;6.10;2.60;;;;;;;17.33;43.99;96402.50;5117403;28;20024;-32
2022/04/20 08:48:08;;;;;;;5.85;1.85;;;;;;;17.41;43.87;96400.91;5104897;28;20040;-33
2022/04/20 08:50:35;;;;;;;4.90;2.00;;;;;;;17.42;44.20;96407.16;5093400;28;20469;-33
2022/04/20 08:53:02;;;;;;;5.47;1.90;;;;;;;17.37;44.26;96399.56;5094804;28;20023;-33
2022/04/20 08:55:28;;;;;;;5.70;2.13;;;;;;;16.97;45.39;96400.81;5094860;28;20165;-34
2022/04/20 08:57:54;;;;;;;5.28;1.92;;;;;;;17.21;44.58;96400.78;5094373;28;20016;-33
2022/04/20 09:00:26;;;;;;;3.60;1.80;;;;;;;17.50;43.60;96394.56;5094436;28;20054;-33
2022/04/20 09:02:57;;;;;;;5.28;2.50;;;;;;;17.03;45.34;96401.72;5094690;28;20024;-33
2022/04/20 09:05:30;;;;;;;3.83;1.77;;;;;;;17.47;43.98;96398.25;5076510;28;20038;-33
2022/04/20 09:07:58;;;;;;;4.45;1.85;;;;;;;17.53;44.00;96408.09;5094691;28;20024;-33
2022/04/20 09:10:27;;;;;;;5.50;2.50;;;;;;;17.08;45.97;96397.53;5076326;28;20097;-33
2022/04/20 09:13:07;;;;;;;4.57;1.88;;;;;;;17.15;45.37;96408.16;5094141;28;20115;-33
2022/04/20 09:15:35;;;;;;;7.95;2.42;;;;;;;16.98;46.66;96407.06;5106786;28;20027;-33
2022/04/20 09:18:03;;;;;;;6.10;2.05;;;;;;;17.19;45.20;96412.19;5098551;28;20043;-33
2022/04/20 09:20:28;;;;;;;3.88;2.78;;;;;;;17.23;45.42;96404.56;5116645;28;20035;-34
2022/04/20 09:23:26;;;;;;;4.82;2.08;;;;;;;17.38;44.23;96412.81;5117013;28;20020;-32
2022/04/20 09:25:53;;;;;;;5.35;2.40;;;;;;;17.21;46.33;96407.00;5116406;28;20479;-32
2022/04/20 09:28:19;;;;;;;6.85;2.38;;;;;;;17.24;45.45;96403.34;5116659;28;20038;-33
2022/04/20 09:30:50;;;;;;;6.00;2.53;;;;;;;17.15;45.45;96405.41;5116622;28;20095;-32
2022/04/20 09:33:16;;;;;;;6.93;2.53;;;;;;;17.01;45.96;96406.13;5116594;28;20023;-33
2022/04/20 09:35:46;;;;;;;2.78;1.80;;;;;;;17.08;46.36;96412.00;5098253;28;20560;-33
2022/04/20 09:38:13;;;;;;;5.63;2.35;;;;;;;17.19;46.08;96412.19;5116667;28;20024;-33
2022/04/20 09:40:39;;;;;;;6.53;2.45;;;;;;;17.29;44.89;96410.16;5116242;28;20024;-33
2022/04/20 09:43:12;;;;;;;4.15;2.05;;;;;;;17.32;44.69;96405.69;5116229;28;20054;-33
2022/04/20 09:45:38;;;;;;;4.10;2.00;;;;;;;17.39;44.51;96405.34;5115766;28;20024;-33
2022/04/20 09:51:11;;;;;;;4.63;2.17;;;;;;;17.33;44.75;96410.72;5116357;28;20072;-32
2022/04/20 09:53:40;;;;;;;4.85;2.17;;;;;;;17.58;43.58;96412.91;5116426;28;20123;-33
2022/04/20 09:56:20;;;;;;;5.72;2.50;;;;;;;17.40;44.44;96410.34;5116191;28;20023;-33
2022/04/20 09:58:47;;;;;;;4.70;2.42;;;;;;;17.45;44.19;96397.97;5116203;28;20020;-33
2022/04/20 10:01:36;;;;;;;2.78;1.67;;;;;;;17.58;43.52;96410.16;5115892;28;20084;-33
2022/04/20 10:04:04;;;;;;;7.15;2.67;;;;;;;17.62;43.63;96406.47;5105491;28;20032;-33
2022/04/20 10:06:32;;;;;;;5.25;2.63;;;;;;;17.59;43.81;96410.91;5115721;28;20063;-33
2022/04/20 10:08:58;;;;;;;4.57;2.53;;;;;;;17.54;43.94;96403.38;5115818;28;20035;-33
2022/04/20 10:11:25;;;;;;;6.60;2.75;;;;;;;17.56;43.70;96390.69;5115894;28;20471;-33
2022/04/20 10:16:47;;;;;;;4.68;2.20;;;;;;;17.64;43.52;96393.84;5116293;28;20026;-34
2022/04/20 10:19:13;;;;;;;6.20;2.63;;;;;;;17.64;43.32;96390.34;5115812;28;20019;-33
2022/04/20 10:21:50;;;;;;;6.07;2.80;;;;;;;17.52;43.61;96395.63;5115692;28;20027;-33
2022/04/20 10:24:23;;;;;;;6.57;2.47;;;;;;;17.58;43.13;96396.44;5115725;28;20027;-33
2022/04/20 10:26:52;;;;;;;5.82;2.63;;;;;;;17.62;43.16;96399.00;5115554;28;20024;-33
2022/04/20 10:29:51;;;;;;;5.95;2.50;;;;;;;17.37;44.07;96392.09;5115431;28;20024;-33
2022/04/20 10:32:28;;;;;;;6.57;2.78;;;;;;;17.36;43.99;96393.31;5115865;28;20047;-33
2022/04/20 10:34:54;;;;;;;7.25;3.50;;;;;;;17.42;44.37;96390.69;5097151;28;20116;-32
2022/04/20 10:37:31;;;;;;;6.97;2.67;;;;;;;17.52;43.50;96387.38;5115307;28;20043;-33
2022/04/20 10:40:17;;;;;;;8.05;3.28;;;;;;;17.59;43.33;96378.78;5115199;28;20023;-33
2022/04/20 10:42:48;;;;;;;8.52;3.85;;;;;;;17.44;43.95;96383.50;5114970;28;20039;-33
2022/04/20 10:45:16;;;;;;;6.00;3.13;;;;;;;17.46;44.08;96378.28;5115279;28;20023;-33
2022/04/20 10:47:43;;;;;;;5.63;3.10;;;;;;;17.56;43.83;96378.94;5114989;28;20027;-33
2022/04/20 10:50:21;;;;;;;5.85;3.03;;;;;;;17.46;44.31;96378.28;5115421;28;20042;-33
2022/04/20 10:53:05;;;;;;;7.43;3.70;;;;;;;17.55;44.02;96371.97;5115182;28;20024;-33
2022/04/20 10:55:30;;;;;;;6.90;3.38;;;;;;;17.48;44.41;96378.59;5115017;28;20050;-32
2022/04/20 10:57:56;;;;;;;8.70;4.38;;;;;;;17.31;45.12;96374.06;5114499;28;20463;-33
2022/04/20 11:00:23;;;;;;;8.32;4.38;;;;;;;17.28;45.98;96370.28;5114830;28;20023;-33
2022/04/20 11:02:50;;;;;;;7.55;4.07;;;;;;;17.17;46.53;96365.34;5096504;28;20038;-33
2022/04/20 11:05:20;;;;;;;10.27;4.55;;;;;;;17.30;45.79;96361.59;5114858;28;20034;-33
2022/04/20 11:08:05;;;;;;;7.90;3.38;;;;;;;17.53;44.58;96347.00;5114550;28;20023;-33
2022/04/20 11:10:32;;;;;;;9.90;5.57;;;;;;;17.38;45.65;96351.75;5114380;28;20023;-33
2022/04/20 11:19:04;;;;;;;13.98;5.72;;;;;;;17.52;44.84;96349.00;5114176;28;20430;-34
2022/04/20 11:21:30;;;;;;;7.05;5.20;;;;;;;17.40;45.02;96339.09;5114502;28;20027;-33
2022/04/20 11:24:01;;;;;;;7.68;4.35;;;;;;;17.66;44.12;96346.75;5114658;28;20024;-33
2022/04/20 11:26:35;;;;;;;12.02;4.93;;;;;;;17.54;45.73;96340.31;5114313;28;20023;-33
2022/04/20 11:29:08;;;;;;;7.53;4.13;;;;;;;17.56;44.29;96343.31;5108474;28;20076;-32
2022/04/20 11:31:42;;;;;;;10.60;4.78;;;;;;;17.68;44.48;96320.34;5103145;28;20070;-33
2022/04/20 11:34:11;;;;;;;7.35;4.03;;;;;;;17.75;43.95;96327.44;5096119;28;20036;-33
2022/04/20 11:36:42;;;;;;;8.18;4.00;;;;;;;17.78;43.70;96321.75;5114176;28;20019;-33
2022/04/20 11:39:09;;;;;;;9.07;4.00;;;;;;;17.67;43.96;96318.09;5114069;28;20031;-33
2022/04/20 11:41:42;;;;;;;8.10;4.40;;;;;;;17.76;43.51;96320.72;5114245;28;20043;-33
2022/04/20 11:44:28;;;;;;;6.38;3.92;;;;;;;17.80;43.60;96310.31;5114057;28;20043;-33
2022/04/20 11:46:57;;;;;;;8.93;4.15;;;;;;;17.88;43.27;96309.44;5113979;28;20028;-33
2022/04/20 11:49:31;;;;;;;11.70;4.68;;;;;;;17.88;43.24;96295.72;5113780;28;20020;-33
2022/04/20 11:52:00;;;;;;;8.90;4.13;;;;;;;17.93;43.14;96300.50;5096060;28;20517;-33
2022/04/20 11:54:30;;;;;;;7.05;4.03;;;;;;;17.87;42.83;96298.94;5114028;28;20027;-33
2022/04/20 11:56:56;;;;;;;6.75;3.13;;;;;;;17.79;43.24;96292.34;5113859;28;20026;-33
2022/04/20 11:59:24;;;;;;;4.07;3.28;;;;;;;17.93;42.80;96289.53;5095647;28;20102;-33
2022/04/20 12:01:50;;;;;;;4.47;3.28;;;;;;;17.96;42.65;96285.09;5113794;28;20083;-33
2022/04/20 12:04:18;;;;;;;4.63;2.67;;;;;;;17.97;42.60;96272.88;5113518;28;20102;-33
2022/04/20 12:06:49;;;;;;;5.55;3.20;;;;;;;17.95;42.73;96283.56;5113560;28;20032;-35
2022/04/20 12:09:18;;;;;;;6.25;2.95;;;;;;;17.92;42.68;96284.56;5117363;28;20034;-33